Etusivu
METAR-TAF:

METAR-TAF

Lentoasemat :

Haugesund, Norja

Leveyspiiri: 59-21N, Pituuspiiri: 005-13E, korkeus merenpinnasta: 2 m

Tämänhetkinen sää

Tämä raportti tehtiin 37 minuuttia sitten, kello 00.20 UTC
Tuuli 4 kn pohjoisen/luoteesta
Lämpötila 14°C
Kosteus 94%
Ilmanpaine 1010 hPa
Näkyvyys 10 km tai enemmän

METAR: ENHD 220020Z AUTO 33004KT 9999 FEW020/// OVC034/// 14/13 Q1010

Aika: 02:57 (00:57 UTC)

Sääennuste

Tämä raportti tehtiin 10 tuntia ja 57 minuuttia sitten, kello 14.00 UTC
Ennuste voimassa 21. päivästä klo 15 UTC - 21. päivään klo 19 UTC
Tuuli 7 kn lännestä/lounaasta
Näkyvyys 10 km tai enemmän
Muutamia pilviä 800 ft:n korkeudessa
Hajonneita pilviä 2000 ft:n korkeudessa
Todennäköisyys 40% :
Ajoittain
21. päivästä klo 15 UTC - 21. päivään klo 19 UTC
Näkyvyys: 3000 m
Pilvistä 400 ft:n korkeudessa
tihkusadetta, sadetta, utua

TAF: ENHD 211400Z 2115/2119 25007KT 9999 FEW008 BKN020 PROB40 TEMPO 2115/2119 3000 DZRA BR OVC004

Säähavainnot ja -ennusteet yli 4000 lentoasemalta (METAR- ja TAF-raportit).

Käytössä olevat sääasemat on merkitty karttaan keltaisilla ja punaisilla pisteillä.

Aseta hiiri pisteen päälle nähdäksesi sääaseman nimen.

Klikkaa sitten nähdäksesi säähavainnot ja -ennusteet.

Kartan vaihtaminen: klikkaa mustalla rastilla varustettuja vihreitä pisteitä, niin voit zoomata sisään; viivalla varustettua vihreää pistettä, niin voit zoomata ulos tai vihreitä nuolia, niin pääset viereisille kartoille.


METAR-TAF: